Terminal Aerodrome Forecast
Issued by NWS Tampa Bay Area, FL

Home | Current Version | Previous Version | Text Only | Print | Product List | Glossary On
Versions: 1 2 3 4 5 6 7 8 9 10 11 12 13 14 15 16 17 18 19 20 21 22 23 24 25 26 27 28 29 30
000
FTUS42 KTBW 271854
TAFTPA
TAF
KTPA 271854Z 2718/2818 20007KT P6SM SCT040 SCT150
     FM272000 26007KT P6SM VCTS SCT050CB SCT150
     FM280100 VRB05KT P6SM FEW050 SCT250
     FM281400 15007KT P6SM FEW030=

USA.gov is the U.S. government's official web portal to all federal, state and local government web resources and services.